sensor_id;sensor_type;location;lat;lon;timestamp;P1;durP1;ratioP1;P2;durP2;ratioP2
10452;SDS011;5274;51.992;8.518;2022-10-16T00:01:18;9.05;;;6.25;;
10452;SDS011;5274;51.992;8.518;2022-10-16T00:03:46;9.25;;;6.25;;
10452;SDS011;5274;51.992;8.518;2022-10-16T00:06:12;8.48;;;6.28;;
10452;SDS011;5274;51.992;8.518;2022-10-16T00:08:38;8.80;;;6.82;;
10452;SDS011;5274;51.992;8.518;2022-10-16T00:11:07;8.88;;;6.10;;
10452;SDS011;5274;51.992;8.518;2022-10-16T00:13:46;7.63;;;6.00;;
10452;SDS011;5274;51.992;8.518;2022-10-16T00:16:13;8.48;;;6.13;;
10452;SDS011;5274;51.992;8.518;2022-10-16T00:18:40;7.07;;;6.13;;
10452;SDS011;5274;51.992;8.518;2022-10-16T00:21:07;7.93;;;5.63;;
10452;SDS011;5274;51.992;8.518;2022-10-16T00:23:34;16.17;;;7.03;;
10452;SDS011;5274;51.992;8.518;2022-10-16T00:26:02;8.25;;;6.13;;
10452;SDS011;5274;51.992;8.518;2022-10-16T00:28:30;9.02;;;7.07;;
10452;SDS011;5274;51.992;8.518;2022-10-16T00:30:56;8.07;;;6.45;;
10452;SDS011;5274;51.992;8.518;2022-10-16T00:33:22;8.95;;;6.30;;
10452;SDS011;5274;51.992;8.518;2022-10-16T00:35:48;9.30;;;6.30;;
10452;SDS011;5274;51.992;8.518;2022-10-16T00:38:13;10.27;;;6.47;;
10452;SDS011;5274;51.992;8.518;2022-10-16T00:40:39;10.95;;;6.82;;
10452;SDS011;5274;51.992;8.518;2022-10-16T00:43:12;12.32;;;7.00;;
10452;SDS011;5274;51.992;8.518;2022-10-16T00:45:58;13.20;;;7.22;;
10452;SDS011;5274;51.992;8.518;2022-10-16T00:48:25;11.68;;;6.82;;
10452;SDS011;5274;51.992;8.518;2022-10-16T00:50:51;9.57;;;6.72;;
10452;SDS011;5274;51.992;8.518;2022-10-16T00:53:17;13.75;;;7.20;;
10452;SDS011;5274;51.992;8.518;2022-10-16T00:55:42;13.10;;;7.38;;
10452;SDS011;5274;51.992;8.518;2022-10-16T00:58:08;12.30;;;7.15;;
10452;SDS011;5274;51.992;8.518;2022-10-16T01:00:34;11.23;;;7.60;;
10452;SDS011;5274;51.992;8.518;2022-10-16T01:03:00;10.63;;;7.00;;
10452;SDS011;5274;51.992;8.518;2022-10-16T01:05:30;12.43;;;6.60;;
10452;SDS011;5274;51.992;8.518;2022-10-16T01:08:10;13.15;;;7.53;;
10452;SDS011;5274;51.992;8.518;2022-10-16T01:10:50;12.75;;;7.15;;
10452;SDS011;5274;51.992;8.518;2022-10-16T01:13:36;11.38;;;6.93;;
10452;SDS011;5274;51.992;8.518;2022-10-16T01:16:13;11.98;;;7.93;;
10452;SDS011;5274;51.992;8.518;2022-10-16T01:18:46;12.02;;;7.18;;
10452;SDS011;5274;51.992;8.518;2022-10-16T01:21:35;15.25;;;7.90;;
10452;SDS011;5274;51.992;8.518;2022-10-16T01:29:25;12.32;;;7.53;;
10452;SDS011;5274;51.992;8.518;2022-10-16T01:31:56;10.32;;;7.43;;
10452;SDS011;5274;51.992;8.518;2022-10-16T01:34:42;10.30;;;7.38;;
10452;SDS011;5274;51.992;8.518;2022-10-16T01:37:16;10.80;;;7.75;;
10452;SDS011;5274;51.992;8.518;2022-10-16T01:39:47;10.90;;;7.32;;
10452;SDS011;5274;51.992;8.518;2022-10-16T01:42:20;13.30;;;8.15;;
10452;SDS011;5274;51.992;8.518;2022-10-16T01:44:48;11.98;;;7.90;;
10452;SDS011;5274;51.992;8.518;2022-10-16T01:47:16;13.88;;;7.35;;
10452;SDS011;5274;51.992;8.518;2022-10-16T01:49:44;12.88;;;7.40;;
10452;SDS011;5274;51.992;8.518;2022-10-16T01:52:13;11.40;;;6.63;;
10452;SDS011;5274;51.992;8.518;2022-10-16T01:54:43;13.55;;;7.60;;
10452;SDS011;5274;51.992;8.518;2022-10-16T01:57:12;12.52;;;7.40;;
10452;SDS011;5274;51.992;8.518;2022-10-16T01:59:42;12.05;;;7.20;;
10452;SDS011;5274;51.992;8.518;2022-10-16T02:02:09;17.35;;;7.65;;
10452;SDS011;5274;51.992;8.518;2022-10-16T02:04:40;12.48;;;7.53;;
10452;SDS011;5274;51.992;8.518;2022-10-16T02:07:10;9.85;;;6.80;;
10452;SDS011;5274;51.992;8.518;2022-10-16T02:09:36;14.85;;;7.68;;
10452;SDS011;5274;51.992;8.518;2022-10-16T02:12:04;13.63;;;7.75;;
10452;SDS011;5274;51.992;8.518;2022-10-16T02:14:33;13.13;;;7.18;;
10452;SDS011;5274;51.992;8.518;2022-10-16T02:16:59;10.48;;;6.72;;
10452;SDS011;5274;51.992;8.518;2022-10-16T02:19:24;13.05;;;7.60;;
10452;SDS011;5274;51.992;8.518;2022-10-16T02:24:25;11.00;;;7.32;;
10452;SDS011;5274;51.992;8.518;2022-10-16T02:26:59;11.07;;;6.72;;
10452;SDS011;5274;51.992;8.518;2022-10-16T02:29:38;13.25;;;7.10;;
10452;SDS011;5274;51.992;8.518;2022-10-16T02:32:09;13.88;;;7.13;;
10452;SDS011;5274;51.992;8.518;2022-10-16T02:34:37;9.95;;;7.07;;
10452;SDS011;5274;51.992;8.518;2022-10-16T02:37:04;11.73;;;7.28;;
10452;SDS011;5274;51.992;8.518;2022-10-16T02:39:31;11.95;;;8.05;;
10452;SDS011;5274;51.992;8.518;2022-10-16T02:41:58;10.45;;;6.90;;
10452;SDS011;5274;51.992;8.518;2022-10-16T02:44:24;12.35;;;7.60;;
10452;SDS011;5274;51.992;8.518;2022-10-16T02:46:49;11.30;;;7.57;;
10452;SDS011;5274;51.992;8.518;2022-10-16T02:49:15;10.55;;;7.07;;
10452;SDS011;5274;51.992;8.518;2022-10-16T02:51:40;9.45;;;7.18;;
10452;SDS011;5274;51.992;8.518;2022-10-16T02:54:06;13.23;;;7.68;;
10452;SDS011;5274;51.992;8.518;2022-10-16T02:56:31;14.68;;;7.95;;
10452;SDS011;5274;51.992;8.518;2022-10-16T02:58:57;12.23;;;8.10;;
10452;SDS011;5274;51.992;8.518;2022-10-16T03:01:23;13.73;;;7.97;;
10452;SDS011;5274;51.992;8.518;2022-10-16T03:03:49;12.18;;;7.75;;
10452;SDS011;5274;51.992;8.518;2022-10-16T03:06:14;12.15;;;7.63;;
10452;SDS011;5274;51.992;8.518;2022-10-16T03:08:40;13.77;;;8.40;;
10452;SDS011;5274;51.992;8.518;2022-10-16T03:11:05;12.40;;;8.00;;
10452;SDS011;5274;51.992;8.518;2022-10-16T03:13:31;13.27;;;6.82;;
10452;SDS011;5274;51.992;8.518;2022-10-16T03:15:56;12.27;;;7.13;;
10452;SDS011;5274;51.992;8.518;2022-10-16T03:18:22;12.07;;;7.63;;
10452;SDS011;5274;51.992;8.518;2022-10-16T03:20:47;12.90;;;6.93;;
10452;SDS011;5274;51.992;8.518;2022-10-16T03:23:13;12.55;;;7.63;;
10452;SDS011;5274;51.992;8.518;2022-10-16T03:25:39;10.07;;;6.75;;
10452;SDS011;5274;51.992;8.518;2022-10-16T03:28:04;10.65;;;6.95;;
10452;SDS011;5274;51.992;8.518;2022-10-16T03:30:30;8.57;;;6.18;;
10452;SDS011;5274;51.992;8.518;2022-10-16T03:32:55;11.45;;;7.07;;
10452;SDS011;5274;51.992;8.518;2022-10-16T03:35:21;8.57;;;6.28;;
10452;SDS011;5274;51.992;8.518;2022-10-16T03:37:48;9.35;;;6.45;;
10452;SDS011;5274;51.992;8.518;2022-10-16T03:40:13;9.40;;;6.50;;
10452;SDS011;5274;51.992;8.518;2022-10-16T03:42:40;11.07;;;6.75;;
10452;SDS011;5274;51.992;8.518;2022-10-16T03:45:07;10.75;;;6.63;;
10452;SDS011;5274;51.992;8.518;2022-10-16T03:47:33;7.68;;;6.30;;
10452;SDS011;5274;51.992;8.518;2022-10-16T03:49:59;10.65;;;6.80;;
10452;SDS011;5274;51.992;8.518;2022-10-16T03:52:25;10.30;;;6.03;;
10452;SDS011;5274;51.992;8.518;2022-10-16T03:54:50;8.93;;;7.00;;
10452;SDS011;5274;51.992;8.518;2022-10-16T03:57:16;9.23;;;6.35;;
10452;SDS011;5274;51.992;8.518;2022-10-16T03:59:41;11.20;;;6.35;;
10452;SDS011;5274;51.992;8.518;2022-10-16T04:02:07;11.15;;;6.72;;
10452;SDS011;5274;51.992;8.518;2022-10-16T04:04:33;11.32;;;6.00;;
10452;SDS011;5274;51.992;8.518;2022-10-16T04:06:58;7.70;;;5.57;;
10452;SDS011;5274;51.992;8.518;2022-10-16T04:09:24;7.55;;;5.60;;
10452;SDS011;5274;51.992;8.518;2022-10-16T04:11:49;8.68;;;6.10;;
10452;SDS011;5274;51.992;8.518;2022-10-16T04:14:15;8.55;;;5.15;;
10452;SDS011;5274;51.992;8.518;2022-10-16T04:16:41;7.78;;;5.57;;
10452;SDS011;5274;51.992;8.518;2022-10-16T04:19:06;9.00;;;5.57;;
10452;SDS011;5274;51.992;8.518;2022-10-16T04:21:32;8.07;;;5.20;;
10452;SDS011;5274;51.992;8.518;2022-10-16T04:23:57;8.38;;;5.53;;
10452;SDS011;5274;51.992;8.518;2022-10-16T04:26:23;7.57;;;4.95;;
10452;SDS011;5274;51.992;8.518;2022-10-16T04:28:48;7.18;;;4.70;;
10452;SDS011;5274;51.992;8.518;2022-10-16T04:31:14;8.23;;;5.35;;
10452;SDS011;5274;51.992;8.518;2022-10-16T04:33:41;6.20;;;4.80;;
10452;SDS011;5274;51.992;8.518;2022-10-16T04:36:08;6.35;;;4.85;;
10452;SDS011;5274;51.992;8.518;2022-10-16T04:38:33;6.30;;;4.80;;
10452;SDS011;5274;51.992;8.518;2022-10-16T04:40:59;7.18;;;4.30;;
10452;SDS011;5274;51.992;8.518;2022-10-16T04:43:25;6.88;;;4.82;;
10452;SDS011;5274;51.992;8.518;2022-10-16T04:45:51;8.32;;;4.47;;
10452;SDS011;5274;51.992;8.518;2022-10-16T04:48:17;6.57;;;4.18;;
10452;SDS011;5274;51.992;8.518;2022-10-16T04:50:43;5.30;;;4.10;;
10452;SDS011;5274;51.992;8.518;2022-10-16T04:53:08;4.50;;;3.90;;
10452;SDS011;5274;51.992;8.518;2022-10-16T04:55:34;5.07;;;3.83;;
10452;SDS011;5274;51.992;8.518;2022-10-16T04:58:00;5.25;;;3.90;;
10452;SDS011;5274;51.992;8.518;2022-10-16T05:00:25;4.38;;;3.63;;
10452;SDS011;5274;51.992;8.518;2022-10-16T05:02:51;6.72;;;3.72;;
10452;SDS011;5274;51.992;8.518;2022-10-16T05:05:17;4.30;;;3.38;;
10452;SDS011;5274;51.992;8.518;2022-10-16T05:07:44;4.55;;;3.60;;
10452;SDS011;5274;51.992;8.518;2022-10-16T05:10:14;7.07;;;3.42;;
10452;SDS011;5274;51.992;8.518;2022-10-16T05:12:40;4.65;;;3.35;;
10452;SDS011;5274;51.992;8.518;2022-10-16T05:15:06;7.15;;;3.30;;
10452;SDS011;5274;51.992;8.518;2022-10-16T05:17:31;6.05;;;3.00;;
10452;SDS011;5274;51.992;8.518;2022-10-16T05:19:57;4.53;;;2.83;;
10452;SDS011;5274;51.992;8.518;2022-10-16T05:22:22;4.53;;;2.95;;
10452;SDS011;5274;51.992;8.518;2022-10-16T05:24:48;3.20;;;2.58;;
10452;SDS011;5274;51.992;8.518;2022-10-16T05:27:13;3.88;;;2.85;;
10452;SDS011;5274;51.992;8.518;2022-10-16T05:29:44;4.10;;;3.08;;
10452;SDS011;5274;51.992;8.518;2022-10-16T05:32:11;4.50;;;3.05;;
10452;SDS011;5274;51.992;8.518;2022-10-16T05:34:37;3.25;;;2.95;;
10452;SDS011;5274;51.992;8.518;2022-10-16T05:37:03;4.03;;;2.92;;
10452;SDS011;5274;51.992;8.518;2022-10-16T05:39:28;3.88;;;3.00;;
10452;SDS011;5274;51.992;8.518;2022-10-16T05:41:54;7.78;;;3.25;;
10452;SDS011;5274;51.992;8.518;2022-10-16T05:44:19;6.07;;;3.40;;
10452;SDS011;5274;51.992;8.518;2022-10-16T05:46:46;4.85;;;2.95;;
10452;SDS011;5274;51.992;8.518;2022-10-16T05:49:11;5.25;;;3.35;;
10452;SDS011;5274;51.992;8.518;2022-10-16T05:51:37;5.53;;;3.03;;
10452;SDS011;5274;51.992;8.518;2022-10-16T05:54:03;3.33;;;2.75;;
10452;SDS011;5274;51.992;8.518;2022-10-16T05:56:28;3.97;;;3.47;;
10452;SDS011;5274;51.992;8.518;2022-10-16T05:58:54;6.13;;;3.17;;
10452;SDS011;5274;51.992;8.518;2022-10-16T06:01:19;5.50;;;3.08;;
10452;SDS011;5274;51.992;8.518;2022-10-16T06:03:49;5.47;;;3.35;;
10452;SDS011;5274;51.992;8.518;2022-10-16T06:06:18;3.30;;;3.00;;
10452;SDS011;5274;51.992;8.518;2022-10-16T06:08:45;4.40;;;2.95;;
10452;SDS011;5274;51.992;8.518;2022-10-16T06:11:13;4.32;;;2.95;;
10452;SDS011;5274;51.992;8.518;2022-10-16T06:13:49;3.28;;;2.97;;
10452;SDS011;5274;51.992;8.518;2022-10-16T06:16:16;3.28;;;2.97;;
10452;SDS011;5274;51.992;8.518;2022-10-16T06:18:41;5.18;;;3.55;;
10452;SDS011;5274;51.992;8.518;2022-10-16T06:21:08;7.57;;;3.35;;
10452;SDS011;5274;51.992;8.518;2022-10-16T06:23:35;4.80;;;2.97;;
10452;SDS011;5274;51.992;8.518;2022-10-16T06:26:11;3.25;;;2.97;;
10452;SDS011;5274;51.992;8.518;2022-10-16T06:28:39;5.00;;;3.00;;
10452;SDS011;5274;51.992;8.518;2022-10-16T06:31:05;3.13;;;2.83;;
10452;SDS011;5274;51.992;8.518;2022-10-16T06:33:32;5.88;;;3.03;;
10452;SDS011;5274;51.992;8.518;2022-10-16T06:36:14;3.90;;;2.67;;
10452;SDS011;5274;51.992;8.518;2022-10-16T06:38:42;6.00;;;2.67;;
10452;SDS011;5274;51.992;8.518;2022-10-16T06:41:09;3.30;;;2.58;;
10452;SDS011;5274;51.992;8.518;2022-10-16T06:43:37;3.20;;;2.72;;
10452;SDS011;5274;51.992;8.518;2022-10-16T06:46:03;3.65;;;2.92;;
10452;SDS011;5274;51.992;8.518;2022-10-16T06:48:32;4.88;;;2.40;;
10452;SDS011;5274;51.992;8.518;2022-10-16T06:50:59;3.88;;;2.53;;
10452;SDS011;5274;51.992;8.518;2022-10-16T06:53:24;5.72;;;2.70;;
10452;SDS011;5274;51.992;8.518;2022-10-16T06:55:51;4.63;;;2.60;;
10452;SDS011;5274;51.992;8.518;2022-10-16T06:58:17;3.03;;;2.30;;
10452;SDS011;5274;51.992;8.518;2022-10-16T07:00:43;3.13;;;2.45;;
10452;SDS011;5274;51.992;8.518;2022-10-16T07:03:08;3.13;;;2.38;;
10452;SDS011;5274;51.992;8.518;2022-10-16T07:05:38;2.67;;;2.35;;
10452;SDS011;5274;51.992;8.518;2022-10-16T07:08:04;2.42;;;2.22;;
10452;SDS011;5274;51.992;8.518;2022-10-16T07:10:31;3.17;;;2.65;;
10452;SDS011;5274;51.992;8.518;2022-10-16T07:12:56;5.00;;;2.15;;
10452;SDS011;5274;51.992;8.518;2022-10-16T07:15:22;4.07;;;2.20;;
10452;SDS011;5274;51.992;8.518;2022-10-16T07:17:48;4.20;;;2.60;;
10452;SDS011;5274;51.992;8.518;2022-10-16T07:20:13;3.35;;;2.40;;
10452;SDS011;5274;51.992;8.518;2022-10-16T07:22:39;3.67;;;2.25;;
10452;SDS011;5274;51.992;8.518;2022-10-16T07:25:04;2.63;;;2.40;;
10452;SDS011;5274;51.992;8.518;2022-10-16T07:27:30;2.50;;;2.13;;
10452;SDS011;5274;51.992;8.518;2022-10-16T07:29:56;2.40;;;2.20;;
10452;SDS011;5274;51.992;8.518;2022-10-16T07:32:21;2.10;;;1.90;;
10452;SDS011;5274;51.992;8.518;2022-10-16T07:34:47;3.55;;;2.35;;
10452;SDS011;5274;51.992;8.518;2022-10-16T07:37:12;2.50;;;2.20;;
10452;SDS011;5274;51.992;8.518;2022-10-16T07:39:38;2.38;;;2.05;;
10452;SDS011;5274;51.992;8.518;2022-10-16T07:42:03;2.17;;;1.90;;
10452;SDS011;5274;51.992;8.518;2022-10-16T07:44:29;2.20;;;1.85;;
10452;SDS011;5274;51.992;8.518;2022-10-16T07:46:54;3.38;;;1.85;;
10452;SDS011;5274;51.992;8.518;2022-10-16T07:49:20;2.42;;;1.98;;
10452;SDS011;5274;51.992;8.518;2022-10-16T07:51:46;2.10;;;1.75;;
10452;SDS011;5274;51.992;8.518;2022-10-16T07:54:11;5.78;;;2.20;;
10452;SDS011;5274;51.992;8.518;2022-10-16T07:56:37;2.00;;;1.80;;
10452;SDS011;5274;51.992;8.518;2022-10-16T07:59:02;2.10;;;1.90;;
10452;SDS011;5274;51.992;8.518;2022-10-16T08:01:28;3.22;;;2.08;;
10452;SDS011;5274;51.992;8.518;2022-10-16T08:03:53;2.28;;;1.90;;
10452;SDS011;5274;51.992;8.518;2022-10-16T08:06:19;4.82;;;2.00;;
10452;SDS011;5274;51.992;8.518;2022-10-16T08:08:46;4.00;;;2.40;;
10452;SDS011;5274;51.992;8.518;2022-10-16T08:11:12;1.90;;;1.70;;
10452;SDS011;5274;51.992;8.518;2022-10-16T08:13:39;3.67;;;1.90;;
10452;SDS011;5274;51.992;8.518;2022-10-16T08:16:05;2.30;;;1.83;;
10452;SDS011;5274;51.992;8.518;2022-10-16T08:18:33;2.10;;;1.90;;
10452;SDS011;5274;51.992;8.518;2022-10-16T08:21:00;1.80;;;1.70;;
10452;SDS011;5274;51.992;8.518;2022-10-16T08:23:26;2.97;;;1.63;;
10452;SDS011;5274;51.992;8.518;2022-10-16T08:25:55;2.78;;;1.60;;
10452;SDS011;5274;51.992;8.518;2022-10-16T08:28:27;2.10;;;1.73;;
10452;SDS011;5274;51.992;8.518;2022-10-16T08:30:52;2.65;;;1.85;;
10452;SDS011;5274;51.992;8.518;2022-10-16T08:33:18;4.60;;;2.17;;
10452;SDS011;5274;51.992;8.518;2022-10-16T08:35:50;3.03;;;2.13;;
10452;SDS011;5274;51.992;8.518;2022-10-16T08:38:17;2.20;;;2.00;;
10452;SDS011;5274;51.992;8.518;2022-10-16T08:40:42;4.70;;;1.85;;
10452;SDS011;5274;51.992;8.518;2022-10-16T08:43:19;4.28;;;2.00;;
10452;SDS011;5274;51.992;8.518;2022-10-16T08:46:23;1.80;;;1.65;;
10452;SDS011;5274;51.992;8.518;2022-10-16T08:48:54;2.20;;;2.00;;
10452;SDS011;5274;51.992;8.518;2022-10-16T08:51:26;2.78;;;2.00;;
10452;SDS011;5274;51.992;8.518;2022-10-16T08:54:06;2.15;;;1.60;;
10452;SDS011;5274;51.992;8.518;2022-10-16T08:56:40;3.05;;;1.60;;
10452;SDS011;5274;51.992;8.518;2022-10-16T08:59:06;2.40;;;1.60;;
10452;SDS011;5274;51.992;8.518;2022-10-16T09:01:40;1.80;;;1.50;;
10452;SDS011;5274;51.992;8.518;2022-10-16T09:04:19;3.08;;;1.20;;
10452;SDS011;5274;51.992;8.518;2022-10-16T09:06:52;1.50;;;1.30;;
10452;SDS011;5274;51.992;8.518;2022-10-16T09:12:01;2.80;;;1.52;;
10452;SDS011;5274;51.992;8.518;2022-10-16T09:17:20;1.88;;;1.23;;
10452;SDS011;5274;51.992;8.518;2022-10-16T09:22:48;4.07;;;1.50;;
10452;SDS011;5274;51.992;8.518;2022-10-16T09:25:15;2.35;;;1.40;;
10452;SDS011;5274;51.992;8.518;2022-10-16T09:27:42;2.78;;;1.40;;
10452;SDS011;5274;51.992;8.518;2022-10-16T09:30:12;5.57;;;1.08;;
10452;SDS011;5274;51.992;8.518;2022-10-16T09:32:39;3.42;;;1.10;;
10452;SDS011;5274;51.992;8.518;2022-10-16T09:35:09;2.28;;;1.30;;
10452;SDS011;5274;51.992;8.518;2022-10-16T09:37:39;2.53;;;1.42;;
10452;SDS011;5274;51.992;8.518;2022-10-16T09:40:06;2.65;;;1.30;;
10452;SDS011;5274;51.992;8.518;2022-10-16T09:42:32;2.67;;;1.30;;
10452;SDS011;5274;51.992;8.518;2022-10-16T09:45:01;1.77;;;1.20;;
10452;SDS011;5274;51.992;8.518;2022-10-16T09:47:28;1.55;;;1.20;;
10452;SDS011;5274;51.992;8.518;2022-10-16T09:50:05;1.38;;;1.10;;
10452;SDS011;5274;51.992;8.518;2022-10-16T09:52:48;1.83;;;1.05;;
10452;SDS011;5274;51.992;8.518;2022-10-16T09:55:14;5.55;;;1.08;;
10452;SDS011;5274;51.992;8.518;2022-10-16T09:57:48;3.00;;;1.00;;
10452;SDS011;5274;51.992;8.518;2022-10-16T10:00:18;2.75;;;0.80;;
10452;SDS011;5274;51.992;8.518;2022-10-16T10:02:44;1.20;;;0.95;;
10452;SDS011;5274;51.992;8.518;2022-10-16T10:05:28;5.50;;;0.90;;
10452;SDS011;5274;51.992;8.518;2022-10-16T10:07:58;0.93;;;0.73;;
10452;SDS011;5274;51.992;8.518;2022-10-16T10:10:26;2.33;;;1.10;;
10452;SDS011;5274;51.992;8.518;2022-10-16T10:12:54;3.72;;;1.10;;
10452;SDS011;5274;51.992;8.518;2022-10-16T10:15:21;2.63;;;1.08;;
10452;SDS011;5274;51.992;8.518;2022-10-16T10:17:53;2.10;;;1.10;;
10452;SDS011;5274;51.992;8.518;2022-10-16T10:20:27;1.23;;;0.93;;
10452;SDS011;5274;51.992;8.518;2022-10-16T10:23:00;1.20;;;0.80;;
10452;SDS011;5274;51.992;8.518;2022-10-16T10:34:18;2.92;;;1.02;;
10452;SDS011;5274;51.992;8.518;2022-10-16T10:37:07;3.40;;;1.10;;
10452;SDS011;5274;51.992;8.518;2022-10-16T10:40:30;5.60;;;1.00;;
10452;SDS011;5274;51.992;8.518;2022-10-16T10:45:58;1.52;;;0.90;;
10452;SDS011;5274;51.992;8.518;2022-10-16T10:48:50;2.53;;;0.90;;
10452;SDS011;5274;51.992;8.518;2022-10-16T10:54:16;3.38;;;0.75;;
10452;SDS011;5274;51.992;8.518;2022-10-16T10:56:51;1.02;;;0.80;;
10452;SDS011;5274;51.992;8.518;2022-10-16T11:02:54;1.48;;;0.70;;
10452;SDS011;5274;51.992;8.518;2022-10-16T11:07:59;1.75;;;1.00;;
10452;SDS011;5274;51.992;8.518;2022-10-16T11:10:30;1.73;;;1.00;;
10452;SDS011;5274;51.992;8.518;2022-10-16T11:13:14;2.92;;;0.98;;
10452;SDS011;5274;51.992;8.518;2022-10-16T11:15:51;2.78;;;1.00;;
10452;SDS011;5274;51.992;8.518;2022-10-16T11:18:24;2.70;;;1.05;;
10452;SDS011;5274;51.992;8.518;2022-10-16T11:20:57;0.88;;;0.82;;
10452;SDS011;5274;51.992;8.518;2022-10-16T11:23:33;2.72;;;0.80;;
10452;SDS011;5274;51.992;8.518;2022-10-16T11:26:17;1.33;;;0.98;;
10452;SDS011;5274;51.992;8.518;2022-10-16T11:28:49;2.05;;;0.70;;
10452;SDS011;5274;51.992;8.518;2022-10-16T11:31:22;2.30;;;0.70;;
10452;SDS011;5274;51.992;8.518;2022-10-16T11:37:02;2.45;;;0.98;;
10452;SDS011;5274;51.992;8.518;2022-10-16T11:39:35;3.60;;;0.90;;
10452;SDS011;5274;51.992;8.518;2022-10-16T11:42:49;0.80;;;0.68;;
10452;SDS011;5274;51.992;8.518;2022-10-16T11:45:03;2.20;;;0.60;;
10452;SDS011;5274;51.992;8.518;2022-10-16T11:47:53;3.42;;;0.57;;
10452;SDS011;5274;51.992;8.518;2022-10-16T11:50:25;1.98;;;0.57;;
10452;SDS011;5274;51.992;8.518;2022-10-16T11:55:44;0.82;;;0.55;;
10452;SDS011;5274;51.992;8.518;2022-10-16T11:58:20;2.33;;;0.80;;
10452;SDS011;5274;51.992;8.518;2022-10-16T12:06:40;1.00;;;0.50;;
10452;SDS011;5274;51.992;8.518;2022-10-16T12:09:24;2.78;;;0.68;;
10452;SDS011;5274;51.992;8.518;2022-10-16T12:11:52;3.80;;;0.70;;
10452;SDS011;5274;51.992;8.518;2022-10-16T12:14:20;2.70;;;0.77;;
10452;SDS011;5274;51.992;8.518;2022-10-16T12:17:03;2.47;;;0.82;;
10452;SDS011;5274;51.992;8.518;2022-10-16T12:19:57;1.15;;;0.60;;
10452;SDS011;5274;51.992;8.518;2022-10-16T12:22:24;1.75;;;0.65;;
10452;SDS011;5274;51.992;8.518;2022-10-16T12:24:54;1.83;;;1.02;;
10452;SDS011;5274;51.992;8.518;2022-10-16T12:27:29;2.60;;;0.80;;
10452;SDS011;5274;51.992;8.518;2022-10-16T12:29:57;3.15;;;0.63;;
10452;SDS011;5274;51.992;8.518;2022-10-16T12:34:56;2.75;;;0.70;;
10452;SDS011;5274;51.992;8.518;2022-10-16T12:37:26;2.75;;;0.80;;
10452;SDS011;5274;51.992;8.518;2022-10-16T12:40:10;3.33;;;0.70;;
10452;SDS011;5274;51.992;8.518;2022-10-16T12:42:54;2.35;;;1.10;;
10452;SDS011;5274;51.992;8.518;2022-10-16T12:45:24;6.43;;;3.65;;
10452;SDS011;5274;51.992;8.518;2022-10-16T12:47:51;1.58;;;0.80;;
10452;SDS011;5274;51.992;8.518;2022-10-16T12:50:26;6.60;;;3.92;;
10452;SDS011;5274;51.992;8.518;2022-10-16T12:53:03;6.35;;;2.70;;
10452;SDS011;5274;51.992;8.518;2022-10-16T12:55:51;0.80;;;0.80;;
10452;SDS011;5274;51.992;8.518;2022-10-16T13:07:20;2.75;;;1.27;;
10452;SDS011;5274;51.992;8.518;2022-10-16T13:12:39;1.05;;;0.43;;
10452;SDS011;5274;51.992;8.518;2022-10-16T13:21:35;1.13;;;0.80;;
10452;SDS011;5274;51.992;8.518;2022-10-16T13:24:25;4.00;;;1.00;;
10452;SDS011;5274;51.992;8.518;2022-10-16T13:27:12;0.98;;;0.88;;
10452;SDS011;5274;51.992;8.518;2022-10-16T13:30:10;3.30;;;1.02;;
10452;SDS011;5274;51.992;8.518;2022-10-16T13:32:44;1.77;;;0.90;;
10452;SDS011;5274;51.992;8.518;2022-10-16T13:35:21;2.45;;;0.88;;
10452;SDS011;5274;51.992;8.518;2022-10-16T13:37:48;2.15;;;0.90;;
10452;SDS011;5274;51.992;8.518;2022-10-16T13:40:18;3.05;;;1.00;;
10452;SDS011;5274;51.992;8.518;2022-10-16T13:42:47;2.00;;;1.08;;
10452;SDS011;5274;51.992;8.518;2022-10-16T13:45:23;1.77;;;0.88;;
10452;SDS011;5274;51.992;8.518;2022-10-16T13:48:00;3.10;;;1.05;;
10452;SDS011;5274;51.992;8.518;2022-10-16T13:50:27;1.98;;;1.20;;
10452;SDS011;5274;51.992;8.518;2022-10-16T13:53:02;4.55;;;1.45;;
10452;SDS011;5274;51.992;8.518;2022-10-16T13:55:32;1.95;;;1.02;;
10452;SDS011;5274;51.992;8.518;2022-10-16T13:58:08;5.30;;;1.33;;
10452;SDS011;5274;51.992;8.518;2022-10-16T14:00:37;2.97;;;1.10;;
10452;SDS011;5274;51.992;8.518;2022-10-16T14:03:15;4.30;;;1.10;;
10452;SDS011;5274;51.992;8.518;2022-10-16T14:05:45;1.58;;;1.20;;
10452;SDS011;5274;51.992;8.518;2022-10-16T14:08:14;1.30;;;1.10;;
10452;SDS011;5274;51.992;8.518;2022-10-16T14:10:40;4.03;;;1.10;;
10452;SDS011;5274;51.992;8.518;2022-10-16T14:13:06;1.95;;;1.02;;
10452;SDS011;5274;51.992;8.518;2022-10-16T14:15:34;1.30;;;1.13;;
10452;SDS011;5274;51.992;8.518;2022-10-16T14:18:01;2.60;;;1.10;;
10452;SDS011;5274;51.992;8.518;2022-10-16T14:20:28;2.72;;;1.00;;
10452;SDS011;5274;51.992;8.518;2022-10-16T14:25:51;1.10;;;1.00;;
10452;SDS011;5274;51.992;8.518;2022-10-16T14:28:18;1.58;;;1.00;;
10452;SDS011;5274;51.992;8.518;2022-10-16T14:30:55;2.70;;;1.30;;
10452;SDS011;5274;51.992;8.518;2022-10-16T14:36:00;1.25;;;1.15;;
10452;SDS011;5274;51.992;8.518;2022-10-16T14:38:28;1.88;;;1.35;;
10452;SDS011;5274;51.992;8.518;2022-10-16T14:40:55;1.55;;;1.08;;
10452;SDS011;5274;51.992;8.518;2022-10-16T14:43:26;5.72;;;3.30;;
10452;SDS011;5274;51.992;8.518;2022-10-16T14:45:58;2.53;;;1.20;;
10452;SDS011;5274;51.992;8.518;2022-10-16T14:48:25;2.38;;;1.20;;
10452;SDS011;5274;51.992;8.518;2022-10-16T14:50:50;3.17;;;1.40;;
10452;SDS011;5274;51.992;8.518;2022-10-16T14:53:16;4.25;;;3.10;;
10452;SDS011;5274;51.992;8.518;2022-10-16T14:55:42;7.38;;;4.38;;
10452;SDS011;5274;51.992;8.518;2022-10-16T14:58:10;6.78;;;3.28;;
10452;SDS011;5274;51.992;8.518;2022-10-16T15:00:41;5.20;;;2.58;;
10452;SDS011;5274;51.992;8.518;2022-10-16T15:03:06;3.47;;;2.22;;
10452;SDS011;5274;51.992;8.518;2022-10-16T15:05:32;6.47;;;2.58;;
10452;SDS011;5274;51.992;8.518;2022-10-16T15:07:57;1.55;;;1.40;;
10452;SDS011;5274;51.992;8.518;2022-10-16T15:10:24;2.25;;;1.60;;
10452;SDS011;5274;51.992;8.518;2022-10-16T15:12:51;2.75;;;1.27;;
10452;SDS011;5274;51.992;8.518;2022-10-16T15:15:25;3.47;;;1.60;;
10452;SDS011;5274;51.992;8.518;2022-10-16T15:17:57;2.95;;;1.17;;
10452;SDS011;5274;51.992;8.518;2022-10-16T15:20:29;2.38;;;1.40;;
10452;SDS011;5274;51.992;8.518;2022-10-16T15:23:00;2.80;;;1.50;;
10452;SDS011;5274;51.992;8.518;2022-10-16T15:25:29;3.10;;;1.50;;
10452;SDS011;5274;51.992;8.518;2022-10-16T15:27:59;2.40;;;1.85;;
10452;SDS011;5274;51.992;8.518;2022-10-16T15:30:25;4.70;;;1.70;;
10452;SDS011;5274;51.992;8.518;2022-10-16T15:32:51;3.33;;;2.25;;
10452;SDS011;5274;51.992;8.518;2022-10-16T15:35:17;4.25;;;2.40;;
10452;SDS011;5274;51.992;8.518;2022-10-16T15:37:43;3.78;;;1.73;;
10452;SDS011;5274;51.992;8.518;2022-10-16T15:40:09;3.20;;;1.73;;
10452;SDS011;5274;51.992;8.518;2022-10-16T15:42:35;5.28;;;2.05;;
10452;SDS011;5274;51.992;8.518;2022-10-16T15:45:00;2.72;;;1.80;;
10452;SDS011;5274;51.992;8.518;2022-10-16T15:47:26;7.38;;;1.85;;
10452;SDS011;5274;51.992;8.518;2022-10-16T15:49:52;2.00;;;1.73;;
10452;SDS011;5274;51.992;8.518;2022-10-16T15:52:17;3.33;;;1.70;;
10452;SDS011;5274;51.992;8.518;2022-10-16T15:54:43;3.45;;;1.60;;
10452;SDS011;5274;51.992;8.518;2022-10-16T15:57:08;5.78;;;1.63;;
10452;SDS011;5274;51.992;8.518;2022-10-16T15:59:34;4.13;;;1.40;;
10452;SDS011;5274;51.992;8.518;2022-10-16T16:01:59;3.92;;;2.30;;
10452;SDS011;5274;51.992;8.518;2022-10-16T16:04:25;3.10;;;1.88;;
10452;SDS011;5274;51.992;8.518;2022-10-16T16:06:51;2.65;;;1.98;;
10452;SDS011;5274;51.992;8.518;2022-10-16T16:09:16;7.00;;;1.95;;
10452;SDS011;5274;51.992;8.518;2022-10-16T16:11:42;2.83;;;1.70;;
10452;SDS011;5274;51.992;8.518;2022-10-16T16:14:10;7.97;;;2.20;;
10452;SDS011;5274;51.992;8.518;2022-10-16T16:16:38;2.33;;;1.58;;
10452;SDS011;5274;51.992;8.518;2022-10-16T16:19:04;2.65;;;1.73;;
10452;SDS011;5274;51.992;8.518;2022-10-16T16:21:31;5.57;;;1.70;;
10452;SDS011;5274;51.992;8.518;2022-10-16T16:23:57;5.13;;;1.70;;
10452;SDS011;5274;51.992;8.518;2022-10-16T16:28:52;2.13;;;1.92;;